Аэропорт: Саратов-Центральный. Саратов

ICAO: UWSS

METAR:
2019-07-24 01:00:00
UWSS 240100Z 18003MPS CAVOK 19/09 Q1014 R12/010095 NOSIG RMK QFE748
METAR:
2019-07-23 23:00:00
TAF UWSS 232300Z 2400/2409 13003G08MPS CAVOK TEMPO 2400/2406 VRB01MPS SCT020